Terminal Aerodrome Forecast
Issued by NWS

Home | Current Version | Previous Version | Text Only | Print | Product List | Glossary On
Versions: 1 2 3 4 5 6 7 8 9 10 11 12 13 14
000
FTUS46 KMTR 011123 AAA
TAFSNS
TAF AMD
KSNS 011123Z 0111/0212 VRB03KT 6SM HZ SKC
     FM011500 12008KT P6SM SKC
     FM012100 31010KT P6SM SKC
     FM020400 VRB03KT P6SM BKN012
     FM021000 10003KT P6SM OVC007=

USA.gov is the U.S. government's official web portal to all federal, state and local government web resources and services.